Time;durP1;ratioP1;P1;durP2;ratioP2;P2;SDS_P1;SDS_P2;PMS_P1;PMS_P2;Temp;Humidity;BMP_temperature;BMP_pressure;BME280_temperature;BME280_humidity;BME280_pressure;Samples;Min_cycle;Max_cycle;Signal;HPM_P1;HPM_P2
2023/06/07 00:00:20;;;;;;;15.02;5.03;;;;;;;16.97;100.00;101645.72;6136834;23;20072;-87
2023/06/07 00:02:45;;;;;;;9.90;4.30;;;;;;;16.92;100.00;101648.06;6162458;23;20016;-87
2023/06/07 00:05:14;;;;;;;10.80;4.40;;;;;;;16.86;100.00;101632.94;6138897;23;20009;-87
2023/06/07 00:07:41;;;;;;;14.35;5.18;;;;;;;16.90;100.00;101648.19;6137981;23;20013;-87
2023/06/07 00:10:07;;;;;;;14.82;4.57;;;;;;;16.78;100.00;101646.56;6190307;23;20032;-87
2023/06/07 00:12:33;;;;;;;13.30;5.97;;;;;;;16.67;100.00;101622.66;6090701;23;20016;-87
2023/06/07 00:15:02;;;;;;;14.18;5.10;;;;;;;16.68;100.00;101652.06;6137409;23;20004;-87
2023/06/07 00:17:27;;;;;;;13.77;4.50;;;;;;;16.71;100.00;101647.13;6138680;23;20017;-88
2023/06/07 00:19:55;;;;;;;7.78;4.78;;;;;;;16.44;100.00;101620.13;6140424;23;20017;-86
2023/06/07 00:22:21;;;;;;;11.98;4.50;;;;;;;16.61;100.00;101661.94;6165972;23;20600;-86
2023/06/07 00:24:46;;;;;;;12.13;4.40;;;;;;;16.65;100.00;101655.13;6141575;23;20068;-86
2023/06/07 00:27:12;;;;;;;6.88;4.60;;;;;;;16.60;100.00;101650.00;6142242;23;20077;-85
2023/06/07 00:29:37;;;;;;;14.27;4.65;;;;;;;16.50;100.00;101629.75;6142272;23;20022;-86
2023/06/07 00:32:03;;;;;;;12.80;5.20;;;;;;;16.54;100.00;101659.75;6123854;23;20021;-86
2023/06/07 00:34:29;;;;;;;12.60;5.72;;;;;;;16.49;100.00;101655.66;6145095;23;20089;-86
2023/06/07 00:36:54;;;;;;;9.57;4.53;;;;;;;16.48;100.00;101645.63;6114918;23;20436;-86
2023/06/07 00:39:22;;;;;;;12.55;5.13;;;;;;;16.43;100.00;101640.50;6114384;23;20020;-86
2023/06/07 00:41:47;;;;;;;10.73;4.45;;;;;;;16.42;100.00;101646.19;6146230;23;20013;-85
2023/06/07 00:44:13;;;;;;;6.70;4.40;;;;;;;16.38;100.00;101636.41;6096646;23;20016;-85
2023/06/07 00:46:39;;;;;;;11.80;5.35;;;;;;;16.24;100.00;101624.72;6138901;23;20039;-86
2023/06/07 00:49:05;;;;;;;10.90;5.20;;;;;;;16.36;100.00;101636.53;6138467;23;20020;-86
2023/06/07 00:51:31;;;;;;;11.80;5.57;;;;;;;16.25;100.00;101636.63;6140868;23;20017;-86
2023/06/07 00:54:03;;;;;;;11.48;5.28;;;;;;;16.16;100.00;101614.34;6141944;23;20020;-85
2023/06/07 00:56:29;;;;;;;9.88;4.65;;;;;;;16.08;100.00;101616.94;6166288;23;20063;-86
2023/06/07 00:58:55;;;;;;;11.85;5.78;;;;;;;16.19;100.00;101631.69;6141894;23;20017;-86
2023/06/07 01:01:21;;;;;;;6.22;4.15;;;;;;;16.23;100.00;101631.25;6195520;23;20016;-86
2023/06/07 01:03:46;;;;;;;11.98;5.22;;;;;;;16.16;100.00;101627.31;6174638;23;20017;-85
2023/06/07 01:06:13;;;;;;;12.35;4.97;;;;;;;15.94;100.00;101606.28;6132069;23;20081;-85
2023/06/07 01:08:39;;;;;;;10.68;5.22;;;;;;;16.03;100.00;101626.66;6158723;23;20016;-85
2023/06/07 01:11:06;;;;;;;15.65;5.68;;;;;;;16.10;100.00;101636.13;6185984;23;19992;-86
2023/06/07 01:13:32;;;;;;;13.43;5.40;;;;;;;15.90;100.00;101615.84;6135354;23;20032;-85
2023/06/07 01:15:58;;;;;;;10.35;5.80;;;;;;;15.85;100.00;101621.78;6133532;23;20048;-85
2023/06/07 01:18:24;;;;;;;11.07;5.63;;;;;;;15.83;100.00;101629.31;6106675;23;20008;-85
2023/06/07 01:20:55;;;;;;;9.57;5.85;;;;;;;15.75;100.00;101631.88;6178576;23;20001;-85
2023/06/07 01:23:32;;;;;;;10.80;5.63;;;;;;;15.74;100.00;101633.75;6158730;23;20009;-84
2023/06/07 01:25:59;;;;;;;9.23;5.45;;;;;;;15.76;100.00;101628.13;6183162;23;20012;-86
2023/06/07 01:28:26;;;;;;;8.93;5.35;;;;;;;15.70;100.00;101625.88;6158167;23;20126;-86
2023/06/07 01:30:53;;;;;;;15.75;6.07;;;;;;;15.70;100.00;101634.16;6208356;23;20053;-85
2023/06/07 01:33:19;;;;;;;8.85;6.20;;;;;;;15.60;100.00;101639.63;6156653;23;20336;-86
2023/06/07 01:35:45;;;;;;;10.23;5.80;;;;;;;15.46;100.00;101613.22;6151037;23;20009;-86
2023/06/07 01:38:13;;;;;;;10.85;5.75;;;;;;;15.51;100.00;101624.75;6122535;23;20017;-86
2023/06/07 01:40:42;;;;;;;11.88;5.60;;;;;;;15.44;100.00;101618.00;6147378;23;20077;-85
2023/06/07 01:43:11;;;;;;;10.13;6.03;;;;;;;15.38;100.00;101627.72;6178198;23;20044;-86
2023/06/07 01:45:37;;;;;;;11.32;5.28;;;;;;;15.31;100.00;101620.09;6153736;23;20024;-86
2023/06/07 01:48:04;;;;;;;13.45;6.55;;;;;;;15.36;100.00;101628.84;6155335;23;20706;-86
2023/06/07 01:50:29;;;;;;;11.77;5.63;;;;;;;15.36;100.00;101634.34;6145413;23;20391;-86
2023/06/07 01:52:54;;;;;;;11.27;5.10;;;;;;;15.25;100.00;101627.03;6139517;23;20013;-86
2023/06/07 01:55:22;;;;;;;14.82;6.47;;;;;;;15.12;100.00;101607.00;6150321;23;20016;-86
2023/06/07 01:58:17;;;;;;;10.63;5.32;;;;;;;15.31;100.00;101622.84;6174180;23;20060;-86
2023/06/07 02:01:16;;;;;;;14.98;5.93;;;;;;;15.26;100.00;101620.47;6148524;23;20016;-86
2023/06/07 02:03:51;;;;;;;8.25;5.15;;;;;;;15.25;100.00;101622.38;6046780;23;20016;-85
2023/06/07 02:06:24;;;;;;;15.43;6.05;;;;;;;15.28;100.00;101625.88;6171058;23;20005;-85
2023/06/07 02:08:53;;;;;;;16.80;6.00;;;;;;;15.07;100.00;101618.47;6168491;23;20009;-86
2023/06/07 02:11:20;;;;;;;12.70;5.95;;;;;;;15.13;100.00;101617.91;6116999;23;20017;-86
2023/06/07 02:13:49;;;;;;;11.05;5.82;;;;;;;15.15;100.00;101620.53;6191984;23;20001;-86
2023/06/07 02:16:15;;;;;;;12.32;6.45;;;;;;;14.95;100.00;101598.31;6115625;23;20036;-86
2023/06/07 02:18:41;;;;;;;12.02;6.15;;;;;;;15.07;100.00;101612.94;6138350;23;20345;-86
2023/06/07 02:21:10;;;;;;;12.38;6.10;;;;;;;14.98;100.00;101588.91;6190033;23;20135;-86
2023/06/07 02:23:37;;;;;;;10.52;5.60;;;;;;;14.92;100.00;101611.47;6194594;23;20019;-86
2023/06/07 02:26:03;;;;;;;12.52;6.40;;;;;;;14.73;100.00;101590.16;6167006;23;20500;-86
2023/06/07 02:28:29;;;;;;;13.88;6.25;;;;;;;14.93;100.00;101610.50;6199221;23;20012;-86
2023/06/07 02:30:55;;;;;;;14.23;6.25;;;;;;;14.89;100.00;101615.41;6162123;23;20017;-86
2023/06/07 02:33:24;;;;;;;17.45;6.75;;;;;;;14.94;100.00;101614.97;6114546;23;20005;-86
2023/06/07 02:35:49;;;;;;;13.38;6.60;;;;;;;14.84;100.00;101614.91;6163246;23;20013;-85
2023/06/07 02:38:15;;;;;;;14.77;6.30;;;;;;;14.75;100.00;101622.06;6138727;23;20433;-86
2023/06/07 02:40:41;;;;;;;15.07;6.03;;;;;;;14.66;100.00;101607.19;6164522;23;20019;-86
2023/06/07 02:43:06;;;;;;;18.55;6.18;;;;;;;14.77;100.00;101619.19;6164312;23;20144;-86
2023/06/07 02:45:31;;;;;;;11.90;6.78;;;;;;;14.72;100.00;101615.94;6115784;23;20013;-86
2023/06/07 02:47:57;;;;;;;12.05;6.25;;;;;;;14.68;100.00;101626.38;6139140;23;20091;-86
2023/06/07 02:50:22;;;;;;;22.95;7.32;;;;;;;14.61;100.00;101614.97;6140463;23;20068;-86
2023/06/07 02:52:48;;;;;;;13.00;6.57;;;;;;;14.64;100.00;101611.06;6142087;23;20020;-85
2023/06/07 02:55:14;;;;;;;14.93;6.88;;;;;;;14.73;100.00;101624.09;6142391;23;20013;-85
2023/06/07 02:57:40;;;;;;;14.88;6.78;;;;;;;14.45;100.00;101607.09;6119820;23;20428;-85
2023/06/07 03:00:11;;;;;;;11.75;6.53;;;;;;;14.58;100.00;101619.84;6175073;23;20024;-86
2023/06/07 03:02:41;;;;;;;14.75;6.18;;;;;;;14.62;100.00;101626.88;6199828;23;20080;-86
2023/06/07 03:05:07;;;;;;;24.13;7.40;;;;;;;14.52;100.00;101632.25;6170260;23;20020;-85
2023/06/07 03:07:35;;;;;;;16.65;6.35;;;;;;;14.58;100.00;101628.13;6117763;23;20009;-85
2023/06/07 03:10:01;;;;;;;12.35;6.75;;;;;;;14.48;100.00;101625.25;6141134;23;20344;-85
2023/06/07 03:12:26;;;;;;;17.27;7.82;;;;;;;14.47;100.00;101623.50;6191187;23;20013;-85
2023/06/07 03:14:52;;;;;;;15.43;6.80;;;;;;;14.40;100.00;101612.09;6164187;23;20020;-86
2023/06/07 03:17:17;;;;;;;14.75;7.43;;;;;;;14.26;100.00;101598.59;6191483;23;20017;-85
2023/06/07 03:19:43;;;;;;;14.00;6.95;;;;;;;14.23;100.00;101599.75;6125641;23;20013;-84
2023/06/07 03:24:43;;;;;;;15.85;7.75;;;;;;;14.19;100.00;101609.25;6199125;23;20024;-83
2023/06/07 03:27:08;;;;;;;17.90;7.53;;;;;;;14.14;100.00;101600.50;6085431;23;20028;-87
2023/06/07 03:29:34;;;;;;;15.18;6.82;;;;;;;14.10;100.00;101601.72;6121501;23;20018;-86
2023/06/07 03:32:00;;;;;;;11.50;6.57;;;;;;;14.08;100.00;101601.00;6139850;23;20561;-87
2023/06/07 03:34:29;;;;;;;20.08;6.88;;;;;;;14.22;100.00;101624.66;6063916;23;20097;-87
2023/06/07 03:36:58;;;;;;;15.75;6.85;;;;;;;14.23;100.00;101626.38;6117059;23;20017;-86
2023/06/07 03:39:24;;;;;;;16.00;7.15;;;;;;;14.20;100.00;101618.38;6119950;23;20010;-86
2023/06/07 03:41:49;;;;;;;19.05;7.10;;;;;;;14.18;100.00;101636.91;6159572;23;20005;-84
2023/06/07 03:44:15;;;;;;;15.40;7.50;;;;;;;14.19;100.00;101635.94;6186700;23;20032;-84
2023/06/07 03:46:41;;;;;;;23.15;6.90;;;;;;;14.20;100.00;101626.63;6185669;23;20024;-86
2023/06/07 03:49:07;;;;;;;12.48;7.10;;;;;;;14.18;100.00;101632.28;6160069;23;20020;-85
2023/06/07 03:51:33;;;;;;;14.85;6.78;;;;;;;14.22;100.00;101636.53;6159893;23;20019;-86
2023/06/07 03:54:01;;;;;;;14.73;8.02;;;;;;;14.24;100.00;101628.16;6161519;23;19985;-86
2023/06/07 03:56:27;;;;;;;17.92;7.40;;;;;;;14.06;100.00;101625.91;6161716;23;20001;-85
2023/06/07 03:58:55;;;;;;;16.35;7.63;;;;;;;14.07;100.00;101616.66;6112979;23;20024;-85
2023/06/07 04:01:25;;;;;;;17.02;7.50;;;;;;;14.18;100.00;101625.91;6162261;23;20032;-80
2023/06/07 04:03:51;;;;;;;11.02;6.53;;;;;;;14.00;100.00;101592.47;6132511;23;20044;-84
2023/06/07 04:06:16;;;;;;;15.48;7.20;;;;;;;14.20;100.00;101621.13;6166440;23;20122;-84
2023/06/07 04:08:45;;;;;;;15.75;6.82;;;;;;;14.02;100.00;101601.47;6093449;23;20012;-84
2023/06/07 04:11:10;;;;;;;10.45;5.75;;;;;;;13.99;100.00;101619.16;6139341;23;20092;-84
2023/06/07 04:13:36;;;;;;;19.08;6.70;;;;;;;14.04;100.00;101622.41;6091205;23;20437;-84
2023/06/07 04:16:01;;;;;;;17.05;7.03;;;;;;;14.13;100.00;101638.19;6114810;23;20021;-83
2023/06/07 04:18:27;;;;;;;14.40;7.22;;;;;;;14.19;100.00;101646.94;6091449;23;20036;-82
2023/06/07 04:20:52;;;;;;;12.02;5.95;;;;;;;14.15;100.00;101638.94;6168139;23;20020;-81
2023/06/07 04:23:18;;;;;;;16.48;6.38;;;;;;;14.08;100.00;101634.91;6170556;23;20009;-83
2023/06/07 04:25:43;;;;;;;17.52;6.68;;;;;;;14.13;100.00;101640.94;6146884;23;20080;-83
2023/06/07 04:28:10;;;;;;;14.07;6.05;;;;;;;14.26;100.00;101637.16;6090750;23;20021;-84
2023/06/07 04:30:36;;;;;;;15.30;6.03;;;;;;;14.29;100.00;101639.66;6137455;23;20024;-85
2023/06/07 04:33:08;;;;;;;14.70;6.38;;;;;;;14.24;100.00;101637.28;6111720;23;20496;-84
2023/06/07 04:35:38;;;;;;;16.63;6.55;;;;;;;14.33;100.00;101644.81;6136312;23;20102;-85
2023/06/07 04:38:03;;;;;;;11.07;6.18;;;;;;;14.24;100.00;101630.91;6160917;23;20436;-84
2023/06/07 04:40:30;;;;;;;10.95;5.97;;;;;;;14.33;100.00;101639.28;6111435;23;20036;-84
2023/06/07 04:43:04;;;;;;;14.05;5.72;;;;;;;14.31;100.00;101645.91;6159898;23;20013;-85
2023/06/07 04:45:31;;;;;;;13.63;5.82;;;;;;;14.19;100.00;101638.69;6135884;23;20009;-85
2023/06/07 04:47:58;;;;;;;13.93;6.00;;;;;;;14.13;100.00;101632.69;6136533;23;20016;-85
2023/06/07 04:50:24;;;;;;;14.05;5.88;;;;;;;14.11;100.00;101645.66;6160937;23;20080;-86
2023/06/07 04:52:50;;;;;;;16.10;6.63;;;;;;;14.16;100.00;101648.06;6136468;23;20055;-83
2023/06/07 05:12:37;;;;;;;8.73;5.85;;;;;;;14.36;100.00;101656.56;6114376;23;20029;-86
2023/06/07 05:15:05;;;;;;;16.27;6.35;;;;;;;14.44;100.00;101654.06;6108048;23;20005;-86
2023/06/07 05:17:31;;;;;;;15.48;5.50;;;;;;;14.33;100.00;101653.06;6182748;23;20040;-86
2023/06/07 05:19:56;;;;;;;13.63;5.63;;;;;;;14.36;100.00;101651.06;6206692;23;20013;-86
2023/06/07 05:22:21;;;;;;;13.07;5.47;;;;;;;14.48;100.00;101656.44;6107071;23;20020;-86
2023/06/07 05:37:43;;;;;;;13.68;5.80;;;;;;;14.45;100.00;101650.31;6141049;23;20028;-86
2023/06/07 05:40:10;;;;;;;12.50;5.10;;;;;;;14.44;100.00;101640.28;6199479;23;20040;-86
2023/06/07 05:47:46;;;;;;;13.52;5.68;;;;;;;14.65;100.00;101663.31;6122761;23;20028;-87
2023/06/07 05:50:12;;;;;;;12.65;5.65;;;;;;;14.63;100.00;101668.09;6094377;23;20069;-86
2023/06/07 05:52:40;;;;;;;16.17;5.57;;;;;;;14.62;100.00;101655.31;6144917;23;20013;-87
2023/06/07 05:55:06;;;;;;;11.95;5.38;;;;;;;14.75;100.00;101668.94;6143505;23;20134;-89
2023/06/07 05:57:32;;;;;;;13.23;5.40;;;;;;;14.62;100.00;101641.50;6144397;23;20418;-89
2023/06/07 05:59:58;;;;;;;11.40;5.90;;;;;;;14.73;100.00;101665.44;6142271;23;20044;-91
2023/06/07 06:02:24;;;;;;;14.80;6.05;;;;;;;14.95;100.00;101664.50;6121246;23;20500;-90
2023/06/07 06:04:52;;;;;;;11.48;6.35;;;;;;;14.89;100.00;101654.88;6101098;23;20072;-88
2023/06/07 06:07:19;;;;;;;13.00;5.75;;;;;;;14.86;100.00;101643.22;6149126;23;20009;-82
2023/06/07 06:09:45;;;;;;;12.20;6.22;;;;;;;15.05;100.00;101657.22;6171249;23;20009;-85
2023/06/07 06:12:12;;;;;;;14.93;5.68;;;;;;;15.03;100.00;101672.13;6137322;23;20020;-81
2023/06/07 06:14:38;;;;;;;13.57;6.10;;;;;;;15.09;100.00;101674.38;6143554;23;20009;-85
2023/06/07 06:17:05;;;;;;;12.48;5.57;;;;;;;15.14;100.00;101685.88;6147138;23;20096;-82
2023/06/07 06:19:31;;;;;;;17.15;6.10;;;;;;;15.03;100.00;101677.63;6167765;23;20337;-80
2023/06/07 06:21:56;;;;;;;12.27;6.57;;;;;;;15.11;100.00;101680.63;6191109;23;20005;-81
2023/06/07 06:24:22;;;;;;;12.82;5.50;;;;;;;15.30;100.00;101682.69;6117457;23;20009;-83
2023/06/07 06:26:47;;;;;;;14.20;7.18;;;;;;;15.37;100.00;101703.22;6124213;23;20013;-82
2023/06/07 06:29:13;;;;;;;14.57;6.38;;;;;;;15.55;100.00;101700.75;6134537;23;19993;-83
2023/06/07 06:31:40;;;;;;;11.57;5.88;;;;;;;15.59;100.00;101698.59;6136443;23;19989;-81
2023/06/07 06:34:07;;;;;;;13.25;5.70;;;;;;;15.58;100.00;101697.72;6077635;23;20040;-81
2023/06/07 06:36:33;;;;;;;15.32;6.10;;;;;;;15.67;100.00;101690.50;6159931;23;20032;-82
2023/06/07 06:38:58;;;;;;;9.82;6.28;;;;;;;15.60;100.00;101701.22;6167795;23;20009;-82
2023/06/07 06:41:24;;;;;;;11.88;5.75;;;;;;;15.33;100.00;101695.31;6142033;23;20078;-84
2023/06/07 06:43:49;;;;;;;14.88;5.55;;;;;;;15.37;100.00;101683.03;6229368;23;20023;-83
2023/06/07 06:46:15;;;;;;;12.98;5.40;;;;;;;15.40;100.00;101688.28;6198225;23;20029;-85
2023/06/07 06:48:41;;;;;;;9.93;5.07;;;;;;;15.43;100.00;101704.59;6171339;23;20501;-84
2023/06/07 06:51:06;;;;;;;13.50;4.88;;;;;;;15.59;100.00;101713.28;6171988;23;20019;-85
2023/06/07 06:53:32;;;;;;;13.15;5.22;;;;;;;15.42;100.00;101714.72;6166480;23;20016;-84
2023/06/07 06:55:58;;;;;;;9.32;5.35;;;;;;;15.44;100.00;101700.81;6117864;23;20054;-88
2023/06/07 06:58:24;;;;;;;13.77;5.50;;;;;;;15.69;100.00;101715.22;6114394;23;20016;-86
2023/06/07 07:00:49;;;;;;;13.10;5.45;;;;;;;15.88;100.00;101717.31;6163301;23;20013;-83
2023/06/07 07:03:15;;;;;;;11.32;5.72;;;;;;;15.77;100.00;101708.09;6138682;23;20450;-83
2023/06/07 07:05:40;;;;;;;16.90;5.68;;;;;;;15.91;100.00;101701.31;6116489;23;20471;-85
2023/06/07 07:08:06;;;;;;;9.10;5.30;;;;;;;16.13;100.00;101705.84;6190668;23;20032;-87
2023/06/07 07:10:32;;;;;;;11.05;5.90;;;;;;;16.31;100.00;101728.16;6142166;23;20048;-85
2023/06/07 07:12:58;;;;;;;11.77;5.63;;;;;;;16.06;100.00;101701.00;6199045;23;20005;-87
2023/06/07 07:15:23;;;;;;;13.68;5.05;;;;;;;16.23;100.00;101716.03;6210692;23;20068;-86
2023/06/07 07:17:50;;;;;;;12.60;5.85;;;;;;;16.29;100.00;101718.28;6185924;23;20019;-86
2023/06/07 07:20:17;;;;;;;10.95;5.78;;;;;;;16.19;100.00;101726.50;6187730;23;20007;-85
2023/06/07 07:22:44;;;;;;;8.95;5.07;;;;;;;16.51;100.00;101723.63;6184555;23;20015;-85
2023/06/07 07:25:10;;;;;;;15.98;5.93;;;;;;;17.59;100.00;101726.63;6184922;23;20032;-87
2023/06/07 07:27:36;;;;;;;11.80;5.05;;;;;;;18.41;99.58;101724.31;6211876;23;20013;-86
2023/06/07 07:30:02;;;;;;;17.92;5.13;;;;;;;18.26;100.00;101723.94;6162739;23;20057;-85
2023/06/07 07:32:28;;;;;;;20.33;5.43;;;;;;;18.15;100.00;101730.50;6210709;23;20016;-87
2023/06/07 07:34:53;;;;;;;12.43;4.85;;;;;;;19.17;96.99;101737.09;6159095;23;20008;-86
2023/06/07 07:37:19;;;;;;;13.38;5.38;;;;;;;18.95;93.09;101730.94;6182974;23;20040;-85
2023/06/07 07:39:45;;;;;;;9.73;5.40;;;;;;;18.42;97.48;101731.63;6160640;23;20084;-85
2023/06/07 07:42:10;;;;;;;14.05;5.95;;;;;;;18.87;97.43;101736.41;6186295;23;20019;-85
2023/06/07 07:44:37;;;;;;;13.25;5.68;;;;;;;19.32;92.28;101726.34;6185097;23;20090;-86
2023/06/07 07:47:05;;;;;;;13.75;4.88;;;;;;;19.52;90.88;101730.69;6161046;23;20036;-86
2023/06/07 07:49:30;;;;;;;11.80;5.05;;;;;;;19.41;89.08;101711.50;6187778;23;20012;-85
2023/06/07 07:51:56;;;;;;;10.23;5.00;;;;;;;19.08;89.26;101727.81;6184015;23;20030;-86
2023/06/07 07:54:21;;;;;;;12.65;5.28;;;;;;;18.57;92.16;101741.19;6159238;23;20028;-85
2023/06/07 07:56:47;;;;;;;14.65;5.18;;;;;;;19.25;91.58;101726.97;6203197;23;20013;-85
2023/06/07 07:59:12;;;;;;;17.63;5.63;;;;;;;19.92;87.17;101723.81;6182620;23;20012;-84
2023/06/07 08:01:38;;;;;;;12.93;5.10;;;;;;;19.93;85.69;101731.09;6181059;23;19993;-86
2023/06/07 08:04:04;;;;;;;16.58;5.15;;;;;;;19.01;88.49;101743.34;6130798;23;20013;-87
2023/06/07 08:06:29;;;;;;;10.40;5.45;;;;;;;18.46;91.49;101738.59;6152056;23;20380;-86
2023/06/07 08:08:55;;;;;;;9.15;4.53;;;;;;;18.43;93.26;101720.38;6178862;23;20016;-85
2023/06/07 08:11:21;;;;;;;10.93;4.72;;;;;;;18.28;96.05;101753.25;6127367;23;20008;-87
2023/06/07 08:13:47;;;;;;;10.27;5.03;;;;;;;18.18;95.41;101752.38;6151775;23;20005;-87
2023/06/07 08:16:12;;;;;;;17.25;4.57;;;;;;;18.20;96.47;101747.59;6177495;23;20008;-87
2023/06/07 08:18:38;;;;;;;12.50;5.45;;;;;;;17.93;98.83;101723.41;6179955;23;20056;-86
2023/06/07 08:21:03;;;;;;;14.40;5.25;;;;;;;17.78;97.66;101718.28;6179298;23;20008;-86
2023/06/07 08:23:30;;;;;;;9.68;5.22;;;;;;;17.75;96.95;101715.81;6178977;23;20008;-86
2023/06/07 08:25:57;;;;;;;11.80;6.03;;;;;;;18.07;96.98;101755.31;6206431;23;20012;-86
2023/06/07 08:28:24;;;;;;;12.52;5.80;;;;;;;17.63;99.68;101741.94;6205242;23;20120;-85
2023/06/07 08:30:49;;;;;;;13.25;5.65;;;;;;;17.76;98.81;101748.06;6158213;23;20012;-86
2023/06/07 08:33:15;;;;;;;10.15;5.03;;;;;;;18.08;100.00;101751.53;6129208;23;20008;-86
2023/06/07 08:35:41;;;;;;;14.68;5.25;;;;;;;18.48;95.10;101747.63;6175404;23;20460;-87
2023/06/07 08:38:07;;;;;;;14.57;5.15;;;;;;;18.48;97.00;101745.75;6127078;23;20040;-87
2023/06/07 08:40:35;;;;;;;10.07;5.10;;;;;;;18.99;95.49;101739.81;6202475;23;20004;-87
2023/06/07 08:43:01;;;;;;;17.25;5.88;;;;;;;19.35;90.38;101746.34;6177931;23;20068;-85
2023/06/07 08:45:27;;;;;;;13.18;5.43;;;;;;;19.79;88.41;101727.00;6159384;23;19996;-86
2023/06/07 08:47:56;;;;;;;11.00;5.60;;;;;;;19.83;87.56;101745.06;6212205;23;20024;-86
2023/06/07 08:50:23;;;;;;;11.25;5.53;;;;;;;20.33;85.47;101746.34;6216986;23;20023;-86
2023/06/07 08:52:53;;;;;;;15.18;5.30;;;;;;;20.28;82.80;101733.94;6185556;23;20008;-87
2023/06/07 08:55:19;;;;;;;12.20;5.22;;;;;;;19.76;86.57;101751.47;6202917;23;20051;-86
2023/06/07 08:57:52;;;;;;;11.90;5.70;;;;;;;19.06;89.13;101719.63;6129757;23;20024;-86
2023/06/07 09:00:25;;;;;;;11.48;4.82;;;;;;;19.34;89.29;101743.72;6177525;23;20005;-86
2023/06/07 09:02:52;;;;;;;13.93;5.00;;;;;;;19.31;88.89;101742.09;6178051;23;20009;-86
2023/06/07 09:05:21;;;;;;;10.38;4.72;;;;;;;19.36;90.02;101750.84;6228593;23;20004;-87
2023/06/07 09:07:48;;;;;;;10.70;6.18;;;;;;;18.89;92.29;101739.91;6174504;23;20059;-87
2023/06/07 09:10:17;;;;;;;15.25;6.30;;;;;;;19.07;89.02;101740.81;6175111;23;20333;-86
2023/06/07 09:12:46;;;;;;;13.38;5.82;;;;;;;18.76;92.57;101742.09;6175316;23;20009;-86
2023/06/07 09:15:20;;;;;;;12.35;5.53;;;;;;;18.98;91.12;101744.50;6174898;23;20012;-85
2023/06/07 09:17:55;;;;;;;16.88;6.22;;;;;;;18.61;93.85;101733.41;6176074;23;20020;-86
2023/06/07 09:20:25;;;;;;;11.65;5.45;;;;;;;18.66;95.86;101739.38;6197426;23;20008;-86
2023/06/07 09:22:58;;;;;;;12.63;5.65;;;;;;;18.57;95.20;101741.19;6171247;23;20018;-85
2023/06/07 09:25:24;;;;;;;10.07;5.00;;;;;;;18.84;93.30;101739.47;6174817;23;20016;-86
2023/06/07 09:27:50;;;;;;;12.82;5.40;;;;;;;18.47;97.17;101734.81;6148410;23;20386;-86
2023/06/07 09:30:17;;;;;;;8.65;5.13;;;;;;;18.70;95.26;101736.16;6196947;23;20063;-86
2023/06/07 09:32:43;;;;;;;11.38;5.75;;;;;;;18.68;96.81;101723.47;6147585;23;20499;-86
2023/06/07 09:35:17;;;;;;;12.57;5.38;;;;;;;18.78;95.53;101738.16;6122941;23;20008;-86
2023/06/07 09:37:45;;;;;;;17.20;5.95;;;;;;;18.70;96.49;101738.94;6196245;23;20008;-86
2023/06/07 09:40:13;;;;;;;14.05;5.40;;;;;;;18.46;97.36;101739.50;6172142;23;20013;-86
2023/06/07 09:42:39;;;;;;;10.57;5.47;;;;;;;18.27;98.77;101750.63;6195910;23;20014;-85
2023/06/07 09:45:12;;;;;;;16.85;6.35;;;;;;;18.37;98.22;101746.78;6121812;23;20116;-85
2023/06/07 09:47:40;;;;;;;12.27;5.47;;;;;;;18.28;100.00;101744.94;6154427;23;20009;-86
2023/06/07 09:50:07;;;;;;;14.85;5.47;;;;;;;18.18;99.35;101741.31;6177438;23;20013;-86
2023/06/07 09:52:33;;;;;;;10.93;5.53;;;;;;;17.93;100.00;101724.28;6151697;23;20008;-86
2023/06/07 09:54:59;;;;;;;15.52;6.15;;;;;;;18.23;100.00;101738.09;6179378;23;20028;-86
2023/06/07 09:57:24;;;;;;;13.07;5.38;;;;;;;18.28;100.00;101749.59;6154233;23;20425;-86
2023/06/07 10:00:14;;;;;;;14.93;6.53;;;;;;;18.26;100.00;101754.41;6177865;23;20091;-85
2023/06/07 10:02:43;;;;;;;19.75;6.68;;;;;;;18.24;100.00;101753.69;6208664;23;20011;-85
2023/06/07 10:05:12;;;;;;;19.15;5.45;;;;;;;18.20;100.00;101753.13;6178003;23;20015;-85
2023/06/07 10:07:46;;;;;;;9.88;5.43;;;;;;;18.00;100.00;101753.16;6174461;23;20017;-84
2023/06/07 10:10:15;;;;;;;17.38;5.70;;;;;;;18.00;100.00;101752.28;6196258;23;20009;-85
2023/06/07 10:12:46;;;;;;;14.45;5.40;;;;;;;17.76;100.00;101728.66;6147042;23;20080;-86
2023/06/07 10:15:33;;;;;;;11.70;5.43;;;;;;;17.97;100.00;101741.47;6150089;23;20019;-86
2023/06/07 10:18:11;;;;;;;16.10;6.28;;;;;;;18.14;100.00;101751.81;6174147;23;20068;-86
2023/06/07 10:20:44;;;;;;;12.85;5.75;;;;;;;17.87;100.00;101747.03;6173400;23;20008;-86
2023/06/07 10:23:18;;;;;;;17.15;5.85;;;;;;;17.81;100.00;101737.41;6148380;23;20008;-85
2023/06/07 10:25:52;;;;;;;13.30;6.20;;;;;;;17.71;100.00;101735.66;6180510;23;20004;-86
2023/06/07 10:28:28;;;;;;;12.18;5.90;;;;;;;17.61;100.00;101730.09;6185756;23;20012;-85
2023/06/07 10:31:04;;;;;;;11.30;6.68;;;;;;;17.39;100.00;101696.16;6205438;23;20035;-86
2023/06/07 10:33:31;;;;;;;11.30;6.45;;;;;;;17.60;100.00;101726.47;6179285;23;20013;-85
2023/06/07 10:35:58;;;;;;;9.77;5.90;;;;;;;17.89;100.00;101727.50;6205090;23;20016;-86
2023/06/07 10:38:24;;;;;;;17.35;6.95;;;;;;;17.81;100.00;101717.16;6179422;23;20016;-85
2023/06/07 10:40:51;;;;;;;11.43;6.03;;;;;;;17.94;100.00;101722.41;6131213;23;20031;-85
2023/06/07 10:43:17;;;;;;;11.73;6.13;;;;;;;18.13;100.00;101705.72;6205670;23;20011;-85
2023/06/07 10:45:42;;;;;;;19.17;7.55;;;;;;;18.06;100.00;101712.03;6206181;23;20060;-86
2023/06/07 10:48:34;;;;;;;12.02;5.70;;;;;;;18.19;100.00;101702.34;6181323;23;20012;-86
2023/06/07 10:51:00;;;;;;;16.77;6.03;;;;;;;18.19;100.00;101699.56;6183832;23;20001;-86
2023/06/07 10:53:26;;;;;;;13.10;6.38;;;;;;;18.29;100.00;101696.78;6186232;23;20008;-87
2023/06/07 10:55:51;;;;;;;15.00;6.88;;;;;;;18.38;100.00;101692.19;6188330;23;20008;-86
2023/06/07 10:58:35;;;;;;;13.52;7.20;;;;;;;18.47;100.00;101702.38;6138125;23;20089;-86
2023/06/07 11:01:24;;;;;;;12.52;7.55;;;;;;;18.57;100.00;101695.94;6135540;23;20016;-87
2023/06/07 11:03:50;;;;;;;9.60;7.25;;;;;;;18.56;100.00;101700.59;6182360;23;20023;-86
2023/06/07 11:06:16;;;;;;;14.57;8.10;;;;;;;18.59;100.00;101688.31;6155099;23;20071;-86
2023/06/07 11:08:43;;;;;;;14.63;6.25;;;;;;;18.84;100.00;101708.94;6152788;23;20009;-85
2023/06/07 11:11:36;;;;;;;15.80;7.20;;;;;;;18.65;100.00;101712.69;6155140;23;20012;-86
2023/06/07 11:14:02;;;;;;;11.48;7.22;;;;;;;18.69;100.00;101708.56;6177372;23;20403;-86
2023/06/07 11:16:30;;;;;;;17.33;7.55;;;;;;;18.83;100.00;101713.63;6201861;23;20009;-86
2023/06/07 11:19:23;;;;;;;15.90;7.25;;;;;;;18.95;100.00;101713.44;6176812;23;20008;-87
2023/06/07 11:22:13;;;;;;;13.68;7.32;;;;;;;18.98;100.00;101721.44;6175482;23;20023;-86
2023/06/07 11:24:38;;;;;;;14.40;8.00;;;;;;;19.03;100.00;101699.63;6200588;23;20005;-86
2023/06/07 11:27:09;;;;;;;14.85;6.68;;;;;;;19.23;100.00;101689.25;6149870;23;20014;-86
2023/06/07 11:29:36;;;;;;;14.48;6.50;;;;;;;19.61;100.00;101681.63;6175917;23;20393;-86
2023/06/07 11:32:02;;;;;;;16.77;6.72;;;;;;;19.80;100.00;101703.69;6173873;23;20020;-86
2023/06/07 11:34:30;;;;;;;18.90;6.78;;;;;;;20.06;100.00;101702.00;6173508;23;20024;-87
2023/06/07 11:37:14;;;;;;;15.93;6.85;;;;;;;20.15;100.00;101703.78;6150475;23;20012;-86
2023/06/07 11:39:40;;;;;;;12.10;6.07;;;;;;;20.10;100.00;101706.19;6176257;23;20015;-85
2023/06/07 11:42:06;;;;;;;13.15;6.93;;;;;;;20.17;100.00;101701.72;6151646;23;20012;-86
2023/06/07 11:44:34;;;;;;;15.25;6.93;;;;;;;20.05;100.00;101706.66;6150030;23;20019;-86
2023/06/07 11:47:05;;;;;;;14.57;7.05;;;;;;;19.95;100.00;101692.00;6152121;23;20008;-85
2023/06/07 11:49:31;;;;;;;17.88;6.78;;;;;;;19.91;100.00;101690.59;6198360;23;20008;-85
2023/06/07 11:51:58;;;;;;;17.35;6.68;;;;;;;20.25;100.00;101698.09;6150274;23;20015;-85